Time;durP1;ratioP1;P1;durP2;ratioP2;P2;SDS_P1;SDS_P2;PMS_P1;PMS_P2;Temp;Humidity;BMP_temperature;BMP_pressure;BME280_temperature;BME280_humidity;BME280_pressure;Samples;Min_cycle;Max_cycle;Signal;HPM_P1;HPM_P2
2023/05/19 00:00:06;;;;;;;8.37;3.10;;;10.70;99.90;;;;;;5017984;28;20455;-82
2023/05/19 00:02:34;;;;;;;4.03;2.80;;;10.60;1.00;;;;;;5017286;28;20487;-82
2023/05/19 00:05:03;;;;;;;5.03;2.60;;;10.60;99.90;;;;;;5018016;28;20462;-81
2023/05/19 00:07:31;;;;;;;9.70;3.77;;;10.60;1.00;;;;;;5017212;28;20523;-82
2023/05/19 00:09:59;;;;;;;10.67;3.40;;;10.60;1.20;;;;;;5017882;28;20902;-82
2023/05/19 00:12:26;;;;;;;7.37;2.97;;;10.50;84.70;;;;;;5017581;28;20475;-81
2023/05/19 00:14:54;;;;;;;7.80;3.60;;;10.50;99.90;;;;;;5017966;28;20464;-82
2023/05/19 00:17:21;;;;;;;6.53;2.80;;;10.40;1.00;;;;;;5017879;28;20452;-81
2023/05/19 00:19:48;;;;;;;6.90;3.07;;;10.40;1.00;;;;;;5018389;28;20463;-82
2023/05/19 00:22:16;;;;;;;6.23;3.23;;;10.40;1.00;;;;;;5019546;28;20510;-82
2023/05/19 00:24:43;;;;;;;4.23;2.60;;;10.40;1.00;;;;;;5016613;28;20460;-81
2023/05/19 00:27:10;;;;;;;12.17;3.80;;;10.40;1.00;;;;;;5016760;28;20495;-81
2023/05/19 00:29:37;;;;;;;8.53;3.67;;;10.30;1.00;;;;;;5016276;28;20452;-82
2023/05/19 00:32:04;;;;;;;5.37;2.97;;;10.30;99.90;;;;;;5015996;28;20476;-81
2023/05/19 00:34:31;;;;;;;4.80;3.20;;;10.20;99.90;;;;;;5009014;28;20487;-82
2023/05/19 00:36:58;;;;;;;6.43;3.10;;;10.20;99.90;;;;;;5006598;28;20450;-81
2023/05/19 00:39:26;;;;;;;7.97;3.20;;;10.10;99.90;;;;;;5012879;28;20464;-81
2023/05/19 00:41:53;;;;;;;5.63;3.03;;;10.10;99.90;;;;;;5009014;28;20568;-81
2023/05/19 00:44:20;;;;;;;6.77;3.63;;;10.00;99.90;;;;;;5007550;28;20450;-82
2023/05/19 00:46:46;;;;;;;5.67;3.90;;;10.00;99.90;;;;;;5008919;28;20987;-81
2023/05/19 00:49:13;;;;;;;5.00;3.70;;;9.90;99.90;;;;;;5015678;28;20447;-81
2023/05/19 00:51:40;;;;;;;8.30;3.80;;;9.90;99.90;;;;;;5016146;28;20474;-81
2023/05/19 00:54:08;;;;;;;7.33;4.17;;;9.80;99.90;;;;;;5014719;28;20992;-82
2023/05/19 00:56:36;;;;;;;5.17;3.40;;;9.80;99.90;;;;;;5015092;28;20464;-81
2023/05/19 00:59:04;;;;;;;5.37;3.50;;;9.70;99.90;;;;;;5015977;28;20449;-81
2023/05/19 01:01:31;;;;;;;4.73;3.40;;;9.70;99.90;;;;;;5016392;28;20584;-81
2023/05/19 01:03:58;;;;;;;9.87;3.33;;;9.60;1.00;;;;;;5015603;28;20473;-81
2023/05/19 01:06:26;;;;;;;5.20;3.30;;;9.50;1.00;;;;;;5015889;28;20453;-82
2023/05/19 01:08:54;;;;;;;6.50;3.17;;;9.50;1.00;;;;;;5004751;28;20578;-82
2023/05/19 01:11:21;;;;;;;6.90;4.47;;;9.40;1.00;;;;;;5007387;28;20485;-81
2023/05/19 01:13:49;;;;;;;12.30;3.90;;;9.40;1.00;;;;;;5009201;28;20447;-81
2023/05/19 01:16:24;;;;;;;6.53;3.90;;;9.30;1.00;;;;;;5007308;28;20447;-82
2023/05/19 01:19:00;;;;;;;8.97;3.83;;;9.30;1.00;;;;;;5016356;28;20842;-82
2023/05/19 01:22:05;;;;;;;9.17;4.20;;;9.20;1.00;;;;;;5015634;28;20515;-82
2023/05/19 01:25:07;;;;;;;6.40;3.60;;;9.20;1.00;;;;;;5015241;28;20461;-82
2023/05/19 01:27:46;;;;;;;5.17;3.43;;;9.10;1.00;;;;;;5015444;28;20480;-82
2023/05/19 01:30:36;;;;;;;6.47;3.20;;;9.10;1.00;;;;;;5015566;28;20466;-80
2023/05/19 01:33:07;;;;;;;6.43;3.63;;;9.00;1.00;;;;;;5009726;28;20461;-81
2023/05/19 01:35:35;;;;;;;6.20;3.60;;;9.00;1.00;;;;;;5016190;28;20530;-82
2023/05/19 01:38:03;;;;;;;6.17;3.60;;;8.90;1.00;;;;;;5016463;28;20449;-81
2023/05/19 01:40:32;;;;;;;7.33;4.10;;;8.90;1.00;;;;;;5016285;28;20541;-81
2023/05/19 01:43:01;;;;;;;6.83;3.40;;;8.80;1.00;;;;;;5015156;28;20999;-81
2023/05/19 01:45:29;;;;;;;6.03;4.33;;;8.80;1.00;;;;;;5015087;28;20451;-81
2023/05/19 01:47:59;;;;;;;7.87;3.50;;;8.80;1.00;;;;;;5015575;28;20998;-82
2023/05/19 01:50:26;;;;;;;6.03;3.07;;;8.80;1.00;;;;;;5015212;28;20460;-81
2023/05/19 01:52:53;;;;;;;4.70;3.40;;;8.80;1.00;;;;;;5014995;28;20449;-82
2023/05/19 01:55:22;;;;;;;7.83;3.63;;;8.70;1.00;;;;;;5003905;28;20439;-82
2023/05/19 01:58:00;;;;;;;4.77;3.50;;;8.70;1.00;;;;;;5007660;28;20471;-81
2023/05/19 02:00:39;;;;;;;6.70;3.70;;;8.80;1.00;;;;;;5006311;28;20451;-82
2023/05/19 02:03:18;;;;;;;7.87;3.33;;;8.80;1.00;;;;;;5009328;28;20954;-81
2023/05/19 02:05:53;;;;;;;4.60;3.40;;;8.80;1.00;;;;;;5010998;28;20467;-82
2023/05/19 02:08:24;;;;;;;5.93;3.80;;;8.80;1.00;;;;;;5020388;28;20507;-81
2023/05/19 02:10:56;;;;;;;8.47;4.80;;;8.80;1.00;;;;;;5019282;28;20470;-81
2023/05/19 02:13:25;;;;;;;7.90;3.83;;;8.70;1.00;;;;;;5012283;28;20449;-82
2023/05/19 02:15:54;;;;;;;6.20;3.50;;;8.70;1.00;;;;;;5012381;28;20992;-82
2023/05/19 02:18:23;;;;;;;8.53;4.60;;;8.70;1.00;;;;;;5008008;28;20472;-82
2023/05/19 02:20:50;;;;;;;6.67;3.67;;;8.70;1.00;;;;;;5004853;28;20481;-81
2023/05/19 02:23:17;;;;;;;6.80;4.23;;;8.70;1.00;;;;;;5005496;28;20455;-82
2023/05/19 02:25:44;;;;;;;7.67;3.60;;;8.70;1.00;;;;;;5007885;28;20465;-82
2023/05/19 02:28:11;;;;;;;6.30;4.10;;;8.70;1.00;;;;;;5008747;28;20861;-82
2023/05/19 02:30:37;;;;;;;6.53;4.33;;;8.60;1.00;;;;;;5010135;28;20475;-81
2023/05/19 02:33:05;;;;;;;6.90;3.93;;;8.60;1.00;;;;;;5007043;28;20451;-81
2023/05/19 02:35:33;;;;;;;10.70;3.93;;;8.60;1.00;;;;;;5009506;28;20477;-82
2023/05/19 02:38:00;;;;;;;8.20;4.27;;;8.60;1.00;;;;;;5008080;28;20471;-82
2023/05/19 02:40:27;;;;;;;6.40;3.80;;;8.60;1.00;;;;;;5012835;28;20503;-82
2023/05/19 02:42:53;;;;;;;8.03;4.33;;;8.60;1.00;;;;;;5012612;28;20524;-81
2023/05/19 02:45:20;;;;;;;9.10;4.87;;;8.60;1.00;;;;;;5016468;28;20477;-81
2023/05/19 02:47:47;;;;;;;6.83;4.47;;;8.60;1.00;;;;;;5019904;28;20492;-81
2023/05/19 02:50:14;;;;;;;6.30;3.77;;;8.60;1.00;;;;;;5018834;28;20536;-81
2023/05/19 02:52:42;;;;;;;10.30;3.67;;;8.60;1.00;;;;;;5006260;28;20465;-82
2023/05/19 02:55:15;;;;;;;9.40;4.07;;;8.60;1.00;;;;;;5006703;28;20460;-82
2023/05/19 02:57:42;;;;;;;7.20;4.10;;;8.50;1.00;;;;;;5013030;28;20483;-81
2023/05/19 03:00:10;;;;;;;6.30;4.50;;;8.50;1.00;;;;;;5010081;28;20452;-81
2023/05/19 03:02:36;;;;;;;9.23;4.90;;;8.50;1.00;;;;;;5015983;28;20460;-82
2023/05/19 03:05:04;;;;;;;7.50;4.30;;;8.50;1.00;;;;;;5015843;28;20465;-81
2023/05/19 03:07:32;;;;;;;6.13;4.10;;;8.50;1.00;;;;;;5014962;28;20454;-82
2023/05/19 03:10:02;;;;;;;8.33;4.10;;;8.40;1.00;;;;;;5015294;28;20844;-82
2023/05/19 03:12:30;;;;;;;13.23;4.70;;;8.50;1.00;;;;;;5014998;28;20476;-81
2023/05/19 03:14:57;;;;;;;7.63;4.53;;;8.50;1.00;;;;;;5015183;28;20539;-82
2023/05/19 03:17:23;;;;;;;11.30;4.30;;;8.50;1.00;;;;;;5015407;28;20452;-81
2023/05/19 03:19:51;;;;;;;10.97;4.50;;;8.50;1.00;;;;;;5017298;28;20457;-81
2023/05/19 03:22:19;;;;;;;7.30;4.07;;;8.50;1.00;;;;;;5018811;28;20468;-81
2023/05/19 03:24:49;;;;;;;5.77;4.00;;;8.50;1.00;;;;;;5018799;28;20869;-81
2023/05/19 03:27:17;;;;;;;8.77;4.70;;;8.60;1.00;;;;;;5018676;28;20472;-81
2023/05/19 03:29:44;;;;;;;8.53;4.13;;;8.60;1.00;;;;;;5019135;28;20489;-81
2023/05/19 03:32:11;;;;;;;5.77;4.37;;;8.60;1.00;;;;;;5018585;28;20468;-82
2023/05/19 03:34:38;;;;;;;6.10;4.03;;;8.60;1.00;;;;;;5017609;28;20536;-82
2023/05/19 03:37:05;;;;;;;7.67;4.13;;;8.60;1.00;;;;;;5018097;28;20459;-81
2023/05/19 03:39:32;;;;;;;8.47;4.77;;;8.60;1.00;;;;;;5018770;28;20969;-82
2023/05/19 03:41:58;;;;;;;6.00;4.77;;;8.60;1.00;;;;;;5018555;28;20578;-81
2023/05/19 03:44:26;;;;;;;7.07;4.97;;;8.60;1.00;;;;;;5018230;28;20466;-80
2023/05/19 03:46:53;;;;;;;6.20;4.43;;;8.70;1.00;;;;;;5017962;28;20463;-82
2023/05/19 03:49:20;;;;;;;9.40;5.03;;;8.70;1.00;;;;;;5018217;28;20492;-81
2023/05/19 03:51:47;;;;;;;10.77;4.60;;;8.70;1.00;;;;;;5018335;28;20472;-82
2023/05/19 03:54:14;;;;;;;8.03;3.90;;;8.70;1.00;;;;;;5018339;28;20790;-81
2023/05/19 03:56:43;;;;;;;7.30;4.70;;;8.70;1.00;;;;;;5018330;28;20520;-81
2023/05/19 03:59:11;;;;;;;6.67;4.20;;;8.70;1.00;;;;;;5017788;28;20452;-81
2023/05/19 04:01:39;;;;;;;10.77;4.80;;;8.80;1.00;;;;;;5019136;28;20484;-81
2023/05/19 04:04:06;;;;;;;12.23;4.60;;;8.70;1.00;;;;;;5017532;28;20836;-81
2023/05/19 04:06:32;;;;;;;7.10;4.23;;;8.80;1.00;;;;;;5018068;28;20483;-81
2023/05/19 04:08:59;;;;;;;8.10;4.27;;;8.80;1.00;;;;;;5017513;28;20501;-81
2023/05/19 04:11:26;;;;;;;7.60;4.00;;;8.80;1.00;;;;;;5018209;28;20473;-81
2023/05/19 04:13:53;;;;;;;8.27;4.93;;;8.80;1.00;;;;;;5017624;28;20460;-82
2023/05/19 04:16:20;;;;;;;7.13;4.30;;;8.80;1.00;;;;;;5017568;28;20465;-81
2023/05/19 04:18:48;;;;;;;11.20;4.27;;;8.90;1.00;;;;;;5018293;28;20455;-81
2023/05/19 04:21:15;;;;;;;9.93;4.87;;;8.90;1.00;;;;;;5018140;28;20543;-81
2023/05/19 04:23:42;;;;;;;10.37;5.07;;;8.90;1.00;;;;;;5017633;28;20479;-81
2023/05/19 04:26:08;;;;;;;10.30;5.10;;;8.90;1.00;;;;;;5018248;28;20500;-81
2023/05/19 04:28:38;;;;;;;7.80;4.30;;;9.00;1.00;;;;;;5017907;28;20498;-80
2023/05/19 04:31:09;;;;;;;8.70;4.43;;;9.00;1.00;;;;;;5016643;28;20491;-81
2023/05/19 04:33:36;;;;;;;6.93;4.03;;;9.10;1.00;;;;;;5019294;28;20531;-81
2023/05/19 04:36:07;;;;;;;5.83;4.03;;;9.10;1.00;;;;;;5019014;28;20461;-81
2023/05/19 04:38:35;;;;;;;8.30;4.90;;;9.20;1.00;;;;;;5017283;28;20548;-81
2023/05/19 04:41:03;;;;;;;8.27;4.40;;;9.20;1.00;;;;;;5018901;28;20858;-80
2023/05/19 04:43:30;;;;;;;7.00;4.10;;;9.30;1.00;;;;;;5016572;28;20464;-81
2023/05/19 04:45:57;;;;;;;7.00;4.60;;;9.30;99.90;;;;;;5016878;28;20463;-81
2023/05/19 04:48:24;;;;;;;8.00;5.30;;;9.40;99.90;;;;;;5017392;28;20485;-81
2023/05/19 04:50:51;;;;;;;6.43;4.20;;;9.40;99.90;;;;;;5017074;28;20489;-81
2023/05/19 04:53:20;;;;;;;9.70;6.20;;;9.40;99.90;;;;;;5016132;28;20955;-81
2023/05/19 04:55:47;;;;;;;6.93;4.20;;;9.40;99.90;;;;;;5016130;28;20462;-81
2023/05/19 04:58:15;;;;;;;6.80;4.60;;;9.50;99.90;;;;;;5016669;28;20972;-80
2023/05/19 05:00:42;;;;;;;7.73;5.00;;;9.50;99.90;;;;;;5016665;28;20489;-81
2023/05/19 05:03:09;;;;;;;7.70;4.97;;;9.50;99.90;;;;;;5015651;28;20460;-81
2023/05/19 05:05:36;;;;;;;11.70;4.50;;;9.50;99.90;;;;;;5017487;28;20525;-82
2023/05/19 05:08:03;;;;;;;10.23;4.60;;;9.60;99.90;;;;;;5016571;28;20458;-82
2023/05/19 05:10:31;;;;;;;5.70;3.93;;;9.70;99.90;;;;;;5016649;28;20888;-81
2023/05/19 05:12:59;;;;;;;9.27;3.90;;;9.70;99.90;;;;;;5016133;28;20520;-81
2023/05/19 05:15:28;;;;;;;8.87;5.07;;;9.80;99.90;;;;;;5016621;28;20489;-81
2023/05/19 05:17:56;;;;;;;10.60;4.30;;;9.80;99.90;;;;;;5015681;28;20930;-81
2023/05/19 05:20:23;;;;;;;6.70;3.93;;;9.90;99.90;;;;;;5016690;28;20497;-81
2023/05/19 05:22:50;;;;;;;9.23;4.47;;;10.00;99.90;;;;;;5016645;28;20461;-79
2023/05/19 05:25:18;;;;;;;8.53;3.93;;;10.10;99.90;;;;;;5016324;28;20468;-81
2023/05/19 05:27:46;;;;;;;7.80;4.70;;;10.20;99.90;;;;;;5016306;28;20459;-81
2023/05/19 05:30:14;;;;;;;6.90;3.60;;;10.20;99.90;;;;;;5016691;28;20489;-81
2023/05/19 05:32:40;;;;;;;9.93;4.37;;;10.30;87.90;;;;;;5016307;28;20764;-81
2023/05/19 05:35:08;;;;;;;7.33;3.63;;;10.40;99.90;;;;;;5015840;28;20451;-81
2023/05/19 05:37:35;;;;;;;7.10;4.20;;;10.50;21.10;;;;;;5016080;28;20483;-81
2023/05/19 05:40:03;;;;;;;11.90;4.03;;;10.50;1.00;;;;;;5016055;28;20440;-80
2023/05/19 05:42:30;;;;;;;10.93;4.63;;;10.60;99.90;;;;;;5015417;28;20521;-82
2023/05/19 05:44:58;;;;;;;6.57;3.97;;;10.70;99.90;;;;;;5016399;28;20906;-81
2023/05/19 05:47:25;;;;;;;7.53;3.80;;;10.80;1.00;;;;;;5017158;28;20458;-81
2023/05/19 05:49:52;;;;;;;4.80;3.53;;;10.90;1.00;;;;;;5016353;28;20484;-85
2023/05/19 05:52:22;;;;;;;7.83;3.70;;;11.00;99.90;;;;;;5018071;28;20482;-85
2023/05/19 05:54:49;;;;;;;5.00;3.20;;;11.00;99.90;;;;;;5017651;28;20560;-85
2023/05/19 05:57:17;;;;;;;4.80;3.53;;;11.10;99.90;;;;;;5018213;28;20547;-84
2023/05/19 05:59:44;;;;;;;7.30;3.60;;;11.10;99.90;;;;;;5018293;28;20540;-85
2023/05/19 06:02:12;;;;;;;6.70;3.20;;;11.20;99.90;;;;;;5017510;28;20483;-85
2023/05/19 06:04:39;;;;;;;7.10;3.03;;;11.30;1.00;;;;;;5017789;28;20466;-84
2023/05/19 06:07:06;;;;;;;7.90;3.70;;;11.40;99.90;;;;;;5017645;28;21021;-85
2023/05/19 06:09:33;;;;;;;8.60;3.40;;;11.50;99.90;;;;;;5018637;28;20481;-85
2023/05/19 06:11:59;;;;;;;5.13;3.20;;;11.60;1.00;;;;;;5019383;28;20651;-85
2023/05/19 06:14:26;;;;;;;7.53;3.73;;;11.60;99.90;;;;;;5018312;28;20466;-86
2023/05/19 06:16:53;;;;;;;6.00;3.03;;;11.70;87.70;;;;;;5019362;28;21012;-85
2023/05/19 06:19:23;;;;;;;9.57;4.00;;;11.70;1.00;;;;;;5020689;28;20449;-84
2023/05/19 06:21:50;;;;;;;6.57;3.53;;;11.70;39.10;;;;;;5012987;28;20474;-83
2023/05/19 06:24:17;;;;;;;7.67;2.93;;;11.80;46.60;;;;;;5014901;28;20452;-84
2023/05/19 06:26:44;;;;;;;6.93;3.63;;;11.90;99.90;;;;;;5005516;28;20445;-85
2023/05/19 06:29:11;;;;;;;8.33;3.33;;;11.90;99.90;;;;;;4998964;28;20497;-85
2023/05/19 06:31:38;;;;;;;6.40;3.50;;;12.10;99.90;;;;;;4999369;28;20481;-86
2023/05/19 06:34:04;;;;;;;7.17;3.27;;;12.10;73.30;;;;;;4999100;28;20524;-85
2023/05/19 06:36:34;;;;;;;6.60;3.33;;;12.20;99.90;;;;;;5011785;28;20469;-85
2023/05/19 06:39:00;;;;;;;6.63;3.13;;;12.30;99.90;;;;;;5018406;28;20449;-85
2023/05/19 06:41:27;;;;;;;8.87;3.97;;;12.30;99.90;;;;;;5018041;28;20468;-86
2023/05/19 06:43:54;;;;;;;6.70;2.87;;;12.30;99.90;;;;;;5019857;28;20459;-86
2023/05/19 06:46:21;;;;;;;6.40;2.70;;;12.40;99.90;;;;;;5019136;28;20545;-85
2023/05/19 06:48:48;;;;;;;6.13;3.40;;;12.50;99.90;;;;;;5017543;28;21115;-84
2023/05/19 06:51:20;;;;;;;7.53;3.60;;;12.60;99.90;;;;;;5010563;28;20553;-85
2023/05/19 06:53:48;;;;;;;7.23;3.10;;;12.50;1.00;;;;;;5007881;28;20437;-85
2023/05/19 06:56:17;;;;;;;4.40;2.80;;;12.60;1.00;;;;;;5011772;28;20455;-85
2023/05/19 06:58:44;;;;;;;7.97;2.90;;;12.70;1.00;;;;;;5015028;28;20439;-86
2023/05/19 07:01:11;;;;;;;8.53;4.10;;;12.70;1.00;;;;;;5019101;28;20575;-85
2023/05/19 07:03:38;;;;;;;7.97;3.50;;;12.80;1.00;;;;;;5022222;28;20435;-85
2023/05/19 07:06:05;;;;;;;4.67;3.17;;;13.00;1.00;;;;;;5021919;28;20509;-86
2023/05/19 07:08:32;;;;;;;5.73;3.03;;;13.10;1.00;;;;;;5022536;28;20451;-85
2023/05/19 07:11:00;;;;;;;7.93;3.53;;;13.20;1.00;;;;;;5020507;28;20537;-85
2023/05/19 07:13:27;;;;;;;5.93;2.80;;;13.30;1.00;;;;;;5020345;28;20986;-85
2023/05/19 07:15:54;;;;;;;6.63;3.07;;;13.40;99.90;;;;;;5020615;28;20470;-85
2023/05/19 07:18:21;;;;;;;5.73;2.97;;;13.50;99.90;;;;;;5020642;28;20461;-86
2023/05/19 07:20:48;;;;;;;6.50;3.07;;;13.60;99.90;;;;;;5019859;28;20469;-85
2023/05/19 07:23:15;;;;;;;6.80;3.00;;;13.70;99.90;;;;;;5019419;28;20938;-84
2023/05/19 07:25:42;;;;;;;5.47;2.70;;;13.80;99.90;;;;;;5020672;28;20547;-86
2023/05/19 07:28:10;;;;;;;7.73;3.13;;;13.90;99.90;;;;;;5020062;28;20460;-85
2023/05/19 07:30:38;;;;;;;6.73;2.40;;;14.10;99.90;;;;;;5019817;28;20529;-86
2023/05/19 07:33:05;;;;;;;7.90;2.80;;;14.20;99.90;;;;;;5020557;28;20456;-85
2023/05/19 07:35:32;;;;;;;8.40;2.73;;;14.30;99.90;;;;;;5021282;28;20453;-85
2023/05/19 07:37:59;;;;;;;7.97;2.60;;;14.50;99.90;;;;;;5021325;28;20453;-85
2023/05/19 07:40:26;;;;;;;8.50;2.50;;;14.60;99.90;;;;;;5020961;28;20449;-84
2023/05/19 07:42:53;;;;;;;5.77;2.70;;;14.70;38.60;;;;;;5024170;28;20461;-86
2023/05/19 07:45:21;;;;;;;7.57;2.77;;;14.70;78.00;;;;;;5024192;28;20480;-85
2023/05/19 07:47:48;;;;;;;6.73;2.47;;;14.80;1.00;;;;;;5022408;28;20477;-85
2023/05/19 07:50:15;;;;;;;8.00;2.90;;;14.80;1.00;;;;;;5019613;28;20585;-86
2023/05/19 07:52:42;;;;;;;5.37;2.67;;;15.00;1.00;;;;;;5002185;28;20556;-86
2023/05/19 07:55:09;;;;;;;4.73;2.20;;;15.10;1.00;;;;;;5007897;28;20998;-86
2023/05/19 07:57:35;;;;;;;11.00;2.93;;;15.20;1.00;;;;;;5002628;28;20545;-85
2023/05/19 08:00:06;;;;;;;5.63;2.40;;;15.30;1.00;;;;;;5002659;28;21059;-85
2023/05/19 08:02:34;;;;;;;9.40;3.20;;;15.40;1.00;;;;;;5001358;28;20482;-85
2023/05/19 08:05:01;;;;;;;6.33;2.73;;;15.50;1.00;;;;;;5005687;28;20537;-84
2023/05/19 08:07:28;;;;;;;4.67;2.20;;;15.60;1.00;;;;;;5014429;28;20498;-84
2023/05/19 08:09:54;;;;;;;9.93;2.50;;;15.80;1.00;;;;;;5019673;28;20509;-85
2023/05/19 08:12:21;;;;;;;7.07;3.20;;;15.80;1.00;;;;;;5037680;28;20508;-82
2023/05/19 08:14:48;;;;;;;6.60;2.80;;;16.00;1.00;;;;;;5039182;28;20619;-85
2023/05/19 08:17:15;;;;;;;5.20;2.17;;;16.20;1.00;;;;;;5037934;28;20433;-83
2023/05/19 08:19:43;;;;;;;7.47;2.10;;;16.40;1.00;;;;;;5038837;28;20441;-86
2023/05/19 08:22:10;;;;;;;6.43;1.97;;;16.70;1.00;;;;;;5022968;28;20520;-86
2023/05/19 08:24:37;;;;;;;8.20;2.37;;;16.90;1.00;;;;;;5019675;28;20467;-85
2023/05/19 08:27:05;;;;;;;6.40;2.83;;;17.10;1.00;;;;;;5036496;28;20465;-86
2023/05/19 08:29:32;;;;;;;6.23;2.10;;;17.50;1.00;;;;;;5039781;28;20490;-85
2023/05/19 08:31:59;;;;;;;9.60;2.20;;;17.80;99.90;;;;;;5039354;28;20621;-87
2023/05/19 08:34:26;;;;;;;8.70;2.07;;;18.30;99.90;;;;;;5039058;28;20471;-87
2023/05/19 08:36:56;;;;;;;5.97;1.90;;;18.70;99.90;;;;;;5024612;28;20478;-86
2023/05/19 08:39:25;;;;;;;6.23;1.40;;;19.20;99.90;;;;;;5019818;28;20450;-86
2023/05/19 08:41:53;;;;;;;9.40;2.90;;;19.40;99.90;;;;;;5019668;28;20469;-86
2023/05/19 08:44:19;;;;;;;3.40;1.57;;;19.70;99.90;;;;;;5033154;28;20481;-85
2023/05/19 08:46:47;;;;;;;6.10;1.93;;;20.10;99.90;;;;;;5036956;28;20513;-84
2023/05/19 08:49:19;;;;;;;4.30;2.07;;;20.70;99.90;;;;;;5036755;28;20433;-85
2023/05/19 08:51:55;;;;;;;5.70;2.10;;;21.40;99.90;;;;;;5036977;28;20466;-85
2023/05/19 08:54:28;;;;;;;3.00;1.70;;;22.10;99.90;;;;;;5036244;28;20477;-84
2023/05/19 08:56:56;;;;;;;4.13;1.80;;;22.90;99.90;;;;;;5035867;28;20430;-84
2023/05/19 08:59:23;;;;;;;6.37;1.70;;;23.60;99.90;;;;;;5031983;28;20461;-84
2023/05/19 09:01:50;;;;;;;5.33;1.50;;;23.80;99.90;;;;;;5034579;28;20548;-85
2023/05/19 09:04:17;;;;;;;6.23;1.37;;;24.40;99.90;;;;;;5022302;28;20509;-85
2023/05/19 09:06:44;;;;;;;4.57;1.50;;;25.40;99.90;;;;;;5026428;28;20501;-84
2023/05/19 09:09:11;;;;;;;4.03;1.40;;;26.10;99.90;;;;;;5021207;28;20468;-85
2023/05/19 09:11:45;;;;;;;7.67;2.00;;;26.00;99.90;;;;;;5020471;28;20486;-85
2023/05/19 09:14:11;;;;;;;5.37;1.80;;;26.90;99.90;;;;;;5025314;28;20502;-86
2023/05/19 09:16:39;;;;;;;6.00;1.80;;;27.30;99.90;;;;;;5027089;28;20481;-85
2023/05/19 09:19:14;;;;;;;5.17;1.57;;;27.10;99.90;;;;;;5027443;28;20453;-85
2023/05/19 09:21:40;;;;;;;4.67;2.23;;;27.60;99.90;;;;;;5004681;28;20465;-82
2023/05/19 09:24:09;;;;;;;4.47;1.57;;;28.20;99.90;;;;;;5005437;28;20456;-84
2023/05/19 09:26:38;;;;;;;5.80;1.83;;;28.70;99.90;;;;;;5004269;28;20443;-84
2023/05/19 09:29:12;;;;;;;3.80;1.80;;;29.80;99.90;;;;;;5019034;28;20461;-86
2023/05/19 09:31:40;;;;;;;4.30;1.60;;;30.40;99.90;;;;;;5029678;28;20541;-85
2023/05/19 09:34:13;;;;;;;3.57;1.60;;;30.90;99.90;;;;;;5034721;28;20521;-85
2023/05/19 09:36:40;;;;;;;5.03;1.53;;;31.20;99.90;;;;;;5021811;28;20500;-85
2023/05/19 09:39:13;;;;;;;8.57;3.50;;;31.70;99.90;;;;;;5015972;28;20450;-85
2023/05/19 09:41:40;;;;;;;6.33;2.37;;;31.30;99.90;;;;;;5018755;28;20500;-86
2023/05/19 09:44:07;;;;;;;15.07;7.23;;;32.10;99.90;;;;;;5014666;28;20458;-85
2023/05/19 09:46:36;;;;;;;6.20;2.80;;;32.70;99.90;;;;;;5015542;28;20544;-82
2023/05/19 09:49:09;;;;;;;5.43;1.73;;;31.80;99.90;;;;;;5016547;28;20442;-83
2023/05/19 09:51:36;;;;;;;6.07;1.80;;;32.00;99.90;;;;;;5016501;28;20490;-82
2023/05/19 09:54:04;;;;;;;4.10;1.40;;;32.70;99.90;;;;;;5023425;28;20453;-82
2023/05/19 09:56:34;;;;;;;5.33;2.00;;;33.70;99.90;;;;;;5036805;28;20436;-82
2023/05/19 09:59:01;;;;;;;5.37;1.77;;;34.00;99.90;;;;;;5030117;28;20445;-84
2023/05/19 10:01:28;;;;;;;4.50;2.00;;;34.60;99.90;;;;;;5032391;28;20588;-82
2023/05/19 10:03:57;;;;;;;4.20;1.40;;;35.40;99.90;;;;;;5016687;28;20457;-84
2023/05/19 10:06:25;;;;;;;4.27;1.63;;;34.90;99.90;;;;;;5018762;28;20457;-85
2023/05/19 10:08:53;;;;;;;4.73;1.70;;;35.30;99.90;;;;;;5018232;28;20556;-84
2023/05/19 10:11:22;;;;;;;3.80;1.57;;;35.60;99.90;;;;;;5018491;28;20840;-85
2023/05/19 10:13:50;;;;;;;3.50;1.43;;;35.40;99.90;;;;;;5017609;28;20434;-84
2023/05/19 10:16:20;;;;;;;6.73;1.80;;;35.90;99.90;;;;;;5015647;28;20487;-84
2023/05/19 10:18:49;;;;;;;6.47;1.60;;;35.90;99.90;;;;;;5014612;28;20464;-84
2023/05/19 10:21:18;;;;;;;4.80;1.90;;;35.90;99.90;;;;;;5015514;28;20473;-84
2023/05/19 10:23:45;;;;;;;4.20;1.47;;;35.80;99.90;;;;;;5015124;28;20460;-84
2023/05/19 10:26:12;;;;;;;5.90;2.23;;;36.30;99.90;;;;;;5019156;28;20509;-85
2023/05/19 10:28:42;;;;;;;3.33;1.50;;;36.30;99.90;;;;;;5018381;28;20545;-84
2023/05/19 10:31:13;;;;;;;4.93;1.70;;;36.50;99.90;;;;;;5017539;28;20498;-85
2023/05/19 10:33:56;;;;;;;6.07;2.03;;;36.30;99.90;;;;;;5016399;28;20953;-85
2023/05/19 10:36:44;;;;;;;4.57;1.57;;;36.90;99.90;;;;;;5008480;28;20561;-85
2023/05/19 10:39:17;;;;;;;3.77;1.83;;;36.90;99.90;;;;;;5006636;28;20453;-85
2023/05/19 10:41:49;;;;;;;5.37;1.80;;;37.00;99.90;;;;;;5015764;28;20474;-84
2023/05/19 10:44:27;;;;;;;9.10;1.90;;;37.40;99.90;;;;;;5019163;28;20469;-85
2023/05/19 10:46:54;;;;;;;4.87;1.80;;;37.30;99.90;;;;;;5018812;28;20473;-85
2023/05/19 10:49:21;;;;;;;4.20;1.67;;;37.90;99.90;;;;;;5009840;28;20513;-84
2023/05/19 10:51:51;;;;;;;5.33;1.40;;;38.70;99.90;;;;;;5009429;28;20496;-84
2023/05/19 10:54:42;;;;;;;5.43;1.87;;;39.00;99.90;;;;;;4998911;28;20901;-84
2023/05/19 10:57:13;;;;;;;4.20;1.50;;;39.00;99.90;;;;;;4998837;28;20443;-84
2023/05/19 10:59:40;;;;;;;4.53;1.90;;;39.50;99.90;;;;;;4999564;28;20454;-84
2023/05/19 11:02:08;;;;;;;3.80;1.50;;;39.50;99.90;;;;;;5009562;28;20488;-84
2023/05/19 11:04:47;;;;;;;4.47;1.87;;;39.40;99.90;;;;;;5006971;28;20458;-84
2023/05/19 11:07:18;;;;;;;3.63;1.60;;;39.80;99.90;;;;;;5013417;28;20449;-85
2023/05/19 11:09:49;;;;;;;4.70;1.73;;;40.10;99.90;;;;;;5013066;28;20500;-85
2023/05/19 11:12:21;;;;;;;7.13;1.93;;;40.10;99.90;;;;;;5008579;28;20541;-84
2023/05/19 11:14:48;;;;;;;3.30;1.40;;;40.30;99.90;;;;;;5005378;28;21733;-85
2023/05/19 11:17:20;;;;;;;4.43;1.80;;;40.60;99.90;;;;;;4998758;28;20434;-83
2023/05/19 11:19:58;;;;;;;2.90;1.60;;;40.10;99.90;;;;;;5004684;28;20951;-85
2023/05/19 11:22:27;;;;;;;3.30;1.67;;;40.00;99.90;;;;;;5013823;28;20493;-83
2023/05/19 11:27:42;;;;;;;5.10;2.07;;;39.90;99.90;;;;;;5013698;28;20427;-83
2023/05/19 11:30:13;;;;;;;5.20;1.70;;;40.70;99.90;;;;;;5002004;28;20457;-85
2023/05/19 11:32:49;;;;;;;5.00;1.90;;;41.20;99.90;;;;;;5013483;28;20816;-85
2023/05/19 11:35:20;;;;;;;5.13;2.10;;;40.40;99.90;;;;;;5013798;28;20513;-84
2023/05/19 11:37:51;;;;;;;3.80;1.83;;;39.60;99.90;;;;;;5014333;28;20487;-83
2023/05/19 11:40:23;;;;;;;4.93;1.73;;;39.60;99.90;;;;;;4998036;28;20454;-84
2023/05/19 11:42:54;;;;;;;4.73;1.77;;;39.90;99.90;;;;;;5000688;28;20466;-83
2023/05/19 11:45:25;;;;;;;4.37;1.90;;;40.20;99.90;;;;;;4999443;28;20466;-85
2023/05/19 11:47:55;;;;;;;4.07;1.80;;;39.80;99.90;;;;;;5000202;28;20431;-84
2023/05/19 11:50:22;;;;;;;3.57;1.90;;;40.30;99.90;;;;;;4999188;28;20993;-84
2023/05/19 11:52:50;;;;;;;5.20;2.03;;;40.70;99.90;;;;;;4998376;28;20514;-84
2023/05/19 11:55:18;;;;;;;4.43;1.47;;;40.60;99.90;;;;;;5013145;28;20541;-85
2023/05/19 11:57:51;;;;;;;7.57;1.97;;;40.50;99.90;;;;;;5019060;28;20460;-84
2023/05/19 12:00:22;;;;;;;4.00;1.90;;;40.30;99.90;;;;;;5018567;28;20441;-84
2023/05/19 12:02:49;;;;;;;7.07;2.70;;;41.40;99.90;;;;;;5017204;28;20815;-84
2023/05/19 12:05:20;;;;;;;5.73;2.00;;;41.60;99.90;;;;;;5017412;28;20458;-83
2023/05/19 12:07:48;;;;;;;4.07;1.80;;;41.00;99.90;;;;;;5017993;28;21032;-84
2023/05/19 12:10:34;;;;;;;4.53;2.20;;;41.10;99.90;;;;;;5019095;28;21024;-84
2023/05/19 12:13:02;;;;;;;6.63;1.87;;;41.60;99.90;;;;;;5016988;28;20457;-85
2023/05/19 12:15:30;;;;;;;4.00;1.80;;;41.50;99.90;;;;;;5018342;28;20506;-86
2023/05/19 12:18:00;;;;;;;3.43;1.60;;;41.20;99.90;;;;;;5017643;28;20461;-87
2023/05/19 12:20:31;;;;;;;4.67;1.80;;;41.50;99.90;;;;;;5018290;28;20472;-85
2023/05/19 12:23:00;;;;;;;4.67;1.97;;;42.00;99.90;;;;;;5020119;28;20465;-85
2023/05/19 12:25:32;;;;;;;5.77;2.13;;;41.70;99.90;;;;;;5020296;28;20457;-83
2023/05/19 12:28:03;;;;;;;8.30;2.00;;;41.60;99.90;;;;;;5018948;28;20461;-85
2023/05/19 12:30:32;;;;;;;4.70;2.13;;;41.90;99.90;;;;;;5019102;28;20511;-84
2023/05/19 12:33:00;;;;;;;5.07;1.60;;;42.00;99.90;;;;;;5020222;28;20466;-85
2023/05/19 12:35:30;;;;;;;5.57;2.20;;;42.30;99.90;;;;;;5020115;28;20992;-85
2023/05/19 12:38:03;;;;;;;3.87;1.87;;;42.60;99.90;;;;;;5020533;28;20473;-86
2023/05/19 12:40:36;;;;;;;6.43;1.60;;;42.70;99.90;;;;;;5010197;28;20883;-84
2023/05/19 12:43:04;;;;;;;5.20;2.00;;;42.40;99.90;;;;;;5013466;28;20474;-85
2023/05/19 12:45:35;;;;;;;5.03;1.63;;;41.60;99.90;;;;;;5012890;28;20476;-85
2023/05/19 12:48:04;;;;;;;3.73;1.73;;;40.70;99.90;;;;;;5024267;28;20458;-85
2023/05/19 12:50:31;;;;;;;3.50;1.73;;;40.80;99.90;;;;;;5023866;28;20457;-85
2023/05/19 12:52:58;;;;;;;5.53;1.50;;;41.50;99.90;;;;;;5024231;28;20553;-84
2023/05/19 12:55:25;;;;;;;5.63;1.93;;;41.70;99.90;;;;;;5016614;28;20443;-84
2023/05/19 12:57:56;;;;;;;6.23;1.90;;;41.80;99.90;;;;;;5012027;28;20469;-85
2023/05/19 13:00:26;;;;;;;3.80;1.67;;;41.80;99.90;;;;;;5013213;28;20958;-84
2023/05/19 13:02:58;;;;;;;4.33;1.93;;;42.30;99.90;;;;;;5014520;28;20446;-84